createdAt,value
2022-12-14T00:02:32.052Z,54.32
2022-12-14T00:05:37.511Z,54.02
2022-12-14T00:08:42.064Z,54.19
2022-12-14T00:11:44.740Z,54.02
2022-12-14T00:14:47.928Z,54.11
2022-12-14T00:17:50.933Z,55.01
2022-12-14T00:20:55.170Z,54.62
2022-12-14T00:23:59.996Z,54.62
2022-12-14T00:27:02.917Z,55.46
2022-12-14T00:30:07.547Z,54.76
2022-12-14T00:33:10.674Z,54.94
2022-12-14T00:36:16.068Z,55.03
2022-12-14T00:39:18.826Z,54.84
2022-12-14T00:42:22.098Z,55.03
2022-12-14T00:45:24.891Z,55.11
2022-12-14T00:48:28.846Z,54.76
2022-12-14T00:51:33.378Z,55.09
2022-12-14T00:54:35.991Z,55.30
2022-12-14T00:57:38.659Z,55.19
2022-12-14T01:00:41.897Z,55.25
2022-12-14T01:03:45.645Z,55.07
2022-12-14T01:06:51.353Z,55.05
2022-12-14T01:09:53.911Z,55.04
2022-12-14T01:12:56.452Z,55.17
2022-12-14T01:16:04.031Z,55.07
2022-12-14T01:19:07.279Z,54.80
2022-12-14T01:22:11.600Z,54.26
2022-12-14T01:25:14.439Z,54.62
2022-12-14T01:28:17.145Z,54.50
2022-12-14T01:31:22.464Z,54.91
2022-12-14T01:34:25.399Z,54.46
2022-12-14T01:37:30.016Z,54.57
2022-12-14T01:40:32.650Z,54.64
2022-12-14T01:43:49.476Z,54.46
2022-12-14T01:46:54.303Z,54.46
2022-12-14T01:50:00.379Z,54.60
2022-12-14T01:53:07.398Z,54.81
2022-12-14T01:56:10.489Z,54.99
2022-12-14T01:59:15.731Z,54.82
2022-12-14T02:02:19.784Z,54.65
2022-12-14T02:05:23.783Z,54.71
2022-12-14T02:08:27.759Z,54.19
2022-12-14T02:11:35.054Z,54.55
2022-12-14T02:14:38.749Z,54.58
2022-12-14T02:17:43.353Z,54.76
2022-12-14T02:20:57.401Z,54.57
2022-12-14T02:24:24.735Z,55.05
2022-12-14T02:27:42.475Z,54.67
2022-12-14T02:30:52.564Z,55.05
2022-12-14T02:33:59.012Z,55.15
2022-12-14T02:37:06.382Z,55.16
2022-12-14T02:40:20.330Z,55.46
2022-12-14T02:43:28.350Z,55.15
2022-12-14T02:46:39.603Z,55.43
2022-12-14T02:49:54.482Z,55.26
2022-12-14T02:53:02.711Z,55.06
2022-12-14T02:56:09.810Z,55.43
2022-12-14T02:59:13.085Z,55.66
2022-12-14T03:02:17.941Z,55.76
2022-12-14T03:05:22.979Z,55.67
2022-12-14T03:08:27.600Z,55.88
2022-12-14T03:11:34.408Z,56.07
2022-12-14T03:14:39.916Z,56.15
2022-12-14T03:17:46.276Z,56.21
2022-12-14T03:20:53.539Z,56.35
2022-12-14T03:23:57.020Z,56.88
2022-12-14T03:27:02.794Z,57.72
2022-12-14T03:30:08.692Z,57.10
2022-12-14T03:33:16.208Z,57.21
2022-12-14T03:36:23.162Z,59.59
2022-12-14T03:39:29.092Z,59.82
2022-12-14T03:42:34.463Z,60.04
2022-12-14T03:45:42.360Z,60.18
2022-12-14T03:48:49.636Z,60.12
2022-12-14T03:51:58.008Z,60.64
2022-12-14T03:55:11.004Z,60.49
2022-12-14T03:58:28.440Z,60.38
2022-12-14T04:01:40.648Z,60.41
2022-12-14T04:04:49.204Z,60.99
2022-12-14T04:07:57.137Z,60.76
2022-12-14T04:11:19.852Z,60.79
2022-12-14T04:14:42.518Z,60.63
2022-12-14T04:18:04.585Z,60.55
2022-12-14T04:21:13.980Z,60.17
2022-12-14T04:24:42.050Z,60.51
2022-12-14T04:27:49.635Z,60.55
2022-12-14T04:30:51.430Z,60.05
2022-12-14T04:33:56.091Z,60.13
2022-12-14T04:37:02.125Z,60.24
2022-12-14T04:40:07.918Z,61.07
2022-12-14T04:43:14.413Z,61.01
2022-12-14T04:46:19.343Z,60.93
2022-12-14T04:49:25.155Z,60.72
2022-12-14T04:52:33.057Z,60.33
2022-12-14T04:55:38.234Z,60.05
2022-12-14T04:58:41.703Z,60.30
2022-12-14T05:01:49.942Z,60.32
2022-12-14T05:04:58.325Z,60.09
2022-12-14T05:08:09.773Z,60.08
2022-12-14T05:11:50.116Z,60.04
2022-12-14T05:14:44.376Z,60.21
2022-12-14T05:17:47.370Z,60.12
2022-12-14T05:20:50.318Z,59.76
2022-12-14T05:23:54.492Z,59.91
2022-12-14T05:26:57.231Z,59.76
2022-12-14T05:30:00.209Z,59.92
2022-12-14T05:33:03.244Z,59.53
2022-12-14T05:36:06.518Z,60.05
2022-12-14T05:39:10.517Z,59.60
2022-12-14T05:42:13.177Z,59.64
2022-12-14T05:45:16.072Z,59.91
2022-12-14T05:48:18.709Z,59.89
2022-12-14T05:51:21.319Z,60.42
2022-12-14T05:54:25.262Z,60.54
2022-12-14T05:57:27.744Z,60.86
2022-12-14T06:00:30.356Z,61.06
2022-12-14T06:03:33.088Z,61.42
2022-12-14T06:06:35.850Z,62.61
2022-12-14T06:09:40.069Z,62.58
2022-12-14T06:12:43.545Z,62.17
2022-12-14T06:15:46.234Z,62.06
2022-12-14T06:18:51.131Z,62.64
2022-12-14T06:21:53.766Z,62.64
2022-12-14T06:24:57.965Z,62.91
2022-12-14T06:28:00.826Z,63.02
2022-12-14T06:31:03.985Z,63.23
2022-12-14T06:34:06.738Z,63.21
2022-12-14T06:37:09.411Z,63.27
2022-12-14T06:40:13.857Z,64.05
2022-12-14T06:43:16.561Z,64.97
2022-12-14T06:46:21.224Z,64.95
2022-12-14T06:49:23.893Z,66.39
2022-12-14T06:52:27.363Z,66.92
2022-12-14T06:55:32.092Z,67.13
2022-12-14T06:58:34.804Z,67.68
2022-12-14T07:01:38.331Z,67.75
2022-12-14T07:04:42.977Z,67.93
2022-12-14T07:07:45.873Z,69.43
2022-12-14T07:10:49.904Z,69.02
2022-12-14T07:13:52.651Z,69.43
2022-12-14T07:16:55.392Z,69.65
2022-12-14T07:19:58.091Z,69.83
2022-12-14T07:23:00.818Z,70.03
2022-12-14T07:26:06.999Z,69.91
2022-12-14T07:29:12.006Z,70.42
2022-12-14T07:32:15.605Z,69.90
2022-12-14T07:35:18.439Z,70.24
2022-12-14T07:38:21.134Z,70.33
2022-12-14T07:41:26.850Z,69.71
2022-12-14T07:44:29.399Z,69.71
2022-12-14T07:47:32.251Z,69.30
2022-12-14T07:50:35.582Z,68.79
2022-12-14T07:53:39.385Z,68.34
2022-12-14T07:56:43.983Z,68.91
2022-12-14T07:59:46.608Z,68.61
2022-12-14T08:02:49.477Z,68.42
2022-12-14T08:05:52.651Z,68.25
2022-12-14T08:08:55.801Z,68.06
2022-12-14T08:12:00.274Z,68.11
2022-12-14T08:15:03.136Z,68.03
2022-12-14T08:18:05.772Z,67.25
2022-12-14T08:21:09.382Z,67.34
2022-12-14T08:24:12.669Z,67.18
2022-12-14T08:27:16.861Z,67.02
2022-12-14T08:30:19.496Z,66.63
2022-12-14T08:33:23.251Z,66.50
2022-12-14T08:36:28.061Z,65.29
2022-12-14T08:39:30.729Z,64.27
2022-12-14T08:42:34.938Z,63.40
2022-12-14T08:45:37.538Z,64.51
2022-12-14T08:48:40.187Z,64.76
2022-12-14T08:51:43.087Z,66.50
2022-12-14T08:54:45.731Z,67.84
2022-12-14T08:57:50.017Z,67.14
2022-12-14T09:01:01.442Z,66.65
2022-12-14T09:04:05.626Z,65.86
2022-12-14T09:07:08.339Z,66.68
2022-12-14T09:10:11.392Z,67.13
2022-12-14T09:13:15.789Z,67.05
2022-12-14T09:16:20.589Z,67.33
2022-12-14T09:19:23.511Z,67.92
2022-12-14T09:22:27.173Z,68.09
2022-12-14T09:25:29.813Z,69.18
2022-12-14T09:28:36.933Z,69.05
2022-12-14T09:31:39.559Z,68.91
2022-12-14T09:34:42.339Z,70.28
2022-12-14T09:37:45.105Z,69.91
2022-12-14T09:40:57.373Z,70.51
2022-12-14T09:44:09.626Z,70.22
2022-12-14T09:47:19.172Z,70.15
2022-12-14T09:50:22.876Z,69.55
2022-12-14T09:53:26.310Z,69.59
2022-12-14T09:56:29.035Z,70.37
2022-12-14T09:59:33.966Z,70.45
2022-12-14T10:02:44.047Z,71.23
2022-12-14T10:05:59.579Z,71.36
2022-12-14T10:09:10.259Z,71.97
2022-12-14T10:12:21.412Z,72.63
2022-12-14T10:15:29.955Z,72.49
2022-12-14T10:19:02.619Z,71.72
2022-12-14T10:22:12.230Z,71.72
2022-12-14T10:25:16.845Z,71.75
2022-12-14T10:28:21.934Z,72.02
2022-12-14T10:31:31.821Z,72.00
2022-12-14T10:34:35.857Z,72.02
2022-12-14T10:37:38.655Z,71.78
2022-12-14T10:40:49.432Z,71.67
2022-12-14T10:43:57.415Z,71.58
2022-12-14T10:47:05.447Z,71.72
2022-12-14T10:50:18.769Z,71.38
2022-12-14T10:53:25.091Z,71.12
2022-12-14T10:56:31.650Z,71.27
2022-12-14T10:59:40.638Z,70.52
2022-12-14T11:02:52.001Z,69.83
2022-12-14T11:05:59.414Z,69.55
2022-12-14T11:09:02.318Z,69.67
2022-12-14T11:12:07.762Z,67.86
2022-12-14T11:15:25.375Z,67.14
2022-12-14T11:18:32.199Z,67.75
2022-12-14T11:21:37.293Z,68.09
2022-12-14T11:24:47.755Z,68.56
2022-12-14T11:27:50.749Z,69.08
2022-12-14T11:30:56.904Z,70.60
2022-12-14T11:34:02.357Z,70.66
2022-12-14T11:37:15.832Z,70.56
2022-12-14T11:40:25.138Z,69.18
2022-12-14T11:43:29.490Z,69.12
2022-12-14T11:46:44.982Z,68.15
2022-12-14T11:49:51.279Z,67.71
2022-12-14T11:53:11.025Z,67.41
2022-12-14T11:56:17.042Z,65.63
2022-12-14T11:59:20.394Z,64.79
2022-12-14T12:02:28.549Z,64.49
2022-12-14T12:05:34.805Z,63.78
2022-12-14T12:08:39.070Z,63.35
2022-12-14T12:11:46.138Z,62.57
2022-12-14T12:14:55.652Z,64.87
2022-12-14T12:18:02.685Z,64.27
2022-12-14T12:21:11.239Z,63.72
2022-12-14T12:24:18.165Z,64.51
2022-12-14T12:27:21.412Z,65.39
2022-12-14T12:30:28.699Z,65.81
2022-12-14T12:33:36.294Z,66.05
2022-12-14T12:36:56.857Z,65.42
2022-12-14T12:40:06.271Z,65.24
2022-12-14T12:43:14.445Z,65.29
2022-12-14T12:46:19.799Z,67.38
2022-12-14T12:49:23.304Z,68.69
2022-12-14T12:52:30.507Z,68.48
2022-12-14T12:55:37.422Z,68.59
2022-12-14T12:58:40.749Z,69.35
2022-12-14T13:01:46.076Z,69.41
2022-12-14T13:04:52.840Z,69.17
2022-12-14T13:07:59.735Z,69.25
2022-12-14T13:14:31.205Z,70.20
2022-12-14T13:17:39.373Z,71.07
2022-12-14T13:20:42.110Z,71.51
2022-12-14T13:23:46.256Z,72.71
2022-12-14T13:27:15.297Z,72.96
2022-12-14T13:30:29.668Z,72.51
2022-12-14T13:33:50.886Z,71.25
2022-12-14T13:37:16.339Z,71.63
2022-12-14T13:40:54.774Z,71.07
2022-12-14T13:44:14.237Z,70.77
2022-12-14T13:47:23.409Z,69.28
2022-12-14T13:50:41.900Z,69.19
2022-12-14T13:53:55.093Z,69.45
2022-12-14T13:57:05.823Z,69.45
2022-12-14T14:00:37.797Z,69.81
2022-12-14T14:03:46.099Z,70.85
2022-12-14T14:06:50.436Z,70.75
2022-12-14T14:10:01.700Z,71.42
2022-12-14T14:13:44.855Z,72.42
2022-12-14T14:16:57.579Z,72.21
2022-12-14T14:20:01.779Z,72.66
2022-12-14T14:23:30.234Z,73.82
2022-12-14T14:26:34.778Z,74.07
2022-12-14T14:29:38.196Z,74.47
2022-12-14T14:32:43.414Z,75.04
2022-12-14T14:35:49.728Z,75.60
2022-12-14T14:38:53.345Z,75.01
2022-12-14T14:41:56.607Z,76.88
2022-12-14T14:45:01.367Z,76.88
2022-12-14T14:48:11.698Z,75.89
2022-12-14T14:51:20.954Z,75.54
2022-12-14T14:57:57.872Z,76.45
2022-12-14T15:01:19.441Z,76.52
2022-12-14T15:04:24.363Z,76.01
2022-12-14T15:07:30.246Z,77.23
2022-12-14T15:10:36.374Z,76.99
2022-12-14T15:13:46.624Z,77.95
2022-12-14T15:16:49.280Z,78.05
2022-12-14T15:19:54.881Z,77.08
2022-12-14T15:22:58.406Z,78.42
2022-12-14T15:26:03.169Z,78.82
2022-12-14T15:29:06.336Z,78.74
2022-12-14T15:32:16.147Z,77.98
2022-12-14T15:35:24.683Z,78.01
2022-12-14T15:38:31.028Z,77.84
2022-12-14T15:41:34.570Z,77.88
2022-12-14T15:44:37.411Z,78.33
2022-12-14T15:47:40.179Z,77.48
2022-12-14T15:50:45.737Z,77.82
2022-12-14T15:53:50.875Z,78.20
2022-12-14T15:56:57.097Z,77.70
2022-12-14T16:00:00.052Z,77.89
2022-12-14T16:03:06.157Z,77.72
2022-12-14T16:06:11.083Z,77.83
2022-12-14T16:09:20.269Z,77.28
2022-12-14T16:12:26.199Z,77.10
2022-12-14T16:15:30.132Z,77.29
2022-12-14T16:18:32.605Z,76.84
2022-12-14T16:21:37.417Z,76.76
2022-12-14T16:24:54.000Z,76.66
2022-12-14T16:27:57.395Z,76.26
2022-12-14T16:31:02.793Z,76.27
2022-12-14T16:34:09.440Z,76.70
2022-12-14T16:37:34.034Z,76.47
2022-12-14T16:40:39.008Z,76.14
2022-12-14T16:43:42.969Z,75.79
2022-12-14T16:46:46.690Z,75.65
2022-12-14T16:49:55.971Z,75.46
2022-12-14T16:53:16.289Z,75.80
2022-12-14T16:56:20.641Z,76.04
2022-12-14T16:59:24.787Z,75.58
2022-12-14T17:02:31.107Z,76.00
2022-12-14T17:05:36.092Z,74.58
2022-12-14T17:08:40.675Z,74.68
2022-12-14T17:11:43.508Z,74.18
2022-12-14T17:14:49.872Z,73.64
2022-12-14T17:17:55.016Z,74.75
2022-12-14T17:20:57.945Z,74.81
2022-12-14T17:24:02.196Z,75.25
2022-12-14T17:27:05.257Z,75.42
2022-12-14T17:30:09.143Z,75.80
2022-12-14T17:33:11.582Z,76.41
2022-12-14T17:36:14.490Z,75.78
2022-12-14T17:39:18.680Z,75.99
2022-12-14T17:42:22.938Z,75.55
2022-12-14T17:45:27.351Z,75.64
2022-12-14T17:48:29.994Z,75.67
2022-12-14T17:51:33.008Z,74.97
2022-12-14T17:54:37.006Z,74.23
2022-12-14T17:57:39.871Z,74.72
2022-12-14T18:01:01.122Z,74.09
2022-12-14T18:04:04.133Z,74.21
2022-12-14T18:07:07.040Z,74.38
2022-12-14T18:10:14.863Z,75.08
2022-12-14T18:13:17.533Z,74.30
2022-12-14T18:16:22.096Z,74.44
2022-12-14T18:19:25.045Z,74.26
2022-12-14T18:22:27.958Z,73.59
2022-12-14T18:25:33.833Z,73.83
2022-12-14T18:28:37.573Z,73.63
2022-12-14T18:31:40.461Z,74.60
2022-12-14T18:34:43.245Z,74.21
2022-12-14T18:37:49.481Z,74.15
2022-12-14T18:40:55.168Z,74.01
2022-12-14T18:43:57.889Z,74.07
2022-12-14T18:47:20.493Z,73.78
2022-12-14T18:50:24.354Z,73.66
2022-12-14T18:53:27.392Z,73.40
2022-12-14T18:56:31.579Z,73.69
2022-12-14T18:59:37.819Z,73.35
2022-12-14T19:02:46.965Z,73.34
2022-12-14T19:05:53.197Z,74.00
2022-12-14T19:08:56.995Z,74.06
2022-12-14T19:12:00.873Z,73.57
2022-12-14T19:15:03.813Z,73.72
2022-12-14T19:18:06.595Z,73.86
2022-12-14T19:21:09.129Z,74.01
2022-12-14T19:24:13.623Z,74.03
2022-12-14T19:27:30.296Z,74.08
2022-12-14T19:30:40.851Z,73.95
2022-12-14T19:33:43.541Z,74.12
2022-12-14T19:36:46.362Z,74.46
2022-12-14T19:39:49.109Z,74.45
2022-12-14T19:42:53.046Z,73.89
2022-12-14T19:45:55.796Z,74.29
2022-12-14T19:48:59.853Z,74.25
2022-12-14T19:52:02.469Z,74.26
2022-12-14T19:55:05.704Z,74.02
2022-12-14T19:58:09.642Z,73.94
2022-12-14T20:01:13.532Z,74.42
2022-12-14T20:04:16.295Z,74.27
2022-12-14T20:07:19.284Z,74.90
2022-12-14T20:10:22.056Z,75.20
2022-12-14T20:13:28.493Z,75.09
2022-12-14T20:16:31.301Z,74.65
2022-12-14T20:19:34.074Z,74.67
2022-12-14T20:22:36.911Z,74.85
2022-12-14T20:25:39.515Z,74.94
2022-12-14T20:28:43.755Z,74.68
2022-12-14T20:31:46.642Z,75.69
2022-12-14T20:34:49.744Z,76.96
2022-12-14T20:37:53.727Z,77.36
2022-12-14T20:40:56.639Z,77.28
2022-12-14T20:44:02.097Z,76.45
2022-12-14T20:47:05.054Z,76.95
2022-12-14T20:50:08.176Z,76.97
2022-12-14T20:53:11.067Z,77.00
2022-12-14T20:56:14.227Z,76.79
2022-12-14T20:59:18.646Z,76.41
2022-12-14T21:02:21.709Z,76.34
2022-12-14T21:05:24.819Z,75.87
2022-12-14T21:08:27.853Z,75.92
2022-12-14T21:11:48.451Z,75.36
2022-12-14T21:14:55.402Z,76.18
2022-12-14T21:17:58.252Z,76.27
2022-12-14T21:21:05.686Z,75.78
2022-12-14T21:24:09.714Z,75.48
2022-12-14T21:27:17.023Z,75.73
2022-12-14T21:30:21.341Z,75.96
2022-12-14T21:33:24.006Z,76.15
2022-12-14T21:36:26.653Z,76.27
2022-12-14T21:39:29.203Z,76.24
2022-12-14T21:42:33.631Z,76.17
2022-12-14T21:45:37.952Z,76.42
2022-12-14T21:48:41.394Z,76.16
2022-12-14T21:51:44.397Z,76.55
2022-12-14T21:54:47.081Z,76.41
2022-12-14T21:58:07.471Z,76.39
2022-12-14T22:01:11.567Z,76.31
2022-12-14T22:04:14.168Z,75.86
2022-12-14T22:07:17.739Z,75.71
2022-12-14T22:10:24.888Z,75.85
2022-12-14T22:13:29.130Z,76.21
2022-12-14T22:16:35.271Z,76.59
2022-12-14T22:19:38.293Z,76.49
2022-12-14T22:22:41.149Z,76.90
2022-12-14T22:25:50.071Z,76.47
2022-12-14T22:28:53.372Z,76.09
2022-12-14T22:31:57.739Z,76.27
2022-12-14T22:35:01.555Z,77.11
2022-12-14T22:38:06.687Z,77.65
2022-12-14T22:41:09.603Z,77.46
2022-12-14T22:44:13.510Z,77.26
2022-12-14T22:47:17.494Z,77.21
2022-12-14T22:50:20.834Z,77.31
2022-12-14T22:53:23.679Z,77.40
2022-12-14T22:56:29.335Z,77.63
2022-12-14T22:59:37.761Z,77.68
2022-12-14T23:02:47.601Z,77.46
2022-12-14T23:05:51.240Z,77.73
2022-12-14T23:09:11.386Z,77.16
2022-12-14T23:12:31.452Z,77.24
2022-12-14T23:15:52.003Z,76.99
2022-12-14T23:19:13.762Z,77.00
2022-12-14T23:22:34.047Z,76.62
2022-12-14T23:25:54.330Z,76.11
2022-12-14T23:29:14.803Z,76.56
2022-12-14T23:32:35.277Z,76.73
2022-12-14T23:35:56.719Z,76.58
2022-12-14T23:39:17.200Z,76.70
2022-12-14T23:42:37.423Z,76.22
2022-12-14T23:45:57.875Z,76.03
2022-12-14T23:49:18.277Z,75.89
2022-12-14T23:52:39.805Z,76.18
2022-12-14T23:56:00.205Z,76.24
2022-12-14T23:59:22.708Z,76.42
